Terminal Aerodrome Forecast
Issued by NWS

Home | Current Version | Previous Version | Text Only | Print | Product List | Glossary On
Versions: 1 2 3 4 5 6 7 8 9 10 11 12 13 14 15
000
FTUS42 KMLB 230520
TAFSUA
TAF
KSUA 230520Z 2306/2406 34004KT P6SM FEW015 SCT030 BKN250
     FM231400 05010KT P6SM SCT030
     FM231800 08012KT P6SM SCT035
     FM240000 08007KT P6SM SCT035 SCT050=

USA.gov is the U.S. government's official web portal to all federal, state and local government web resources and services.